EW1719 Weather Reports


Display with metric or nautical units.
time (UTC)temp
F
wind
direction
speed
MPH
gust
MPH
rain 1hr
in
rain 24hr
in
rain mn
in
humidity
%
barometer
mb
20210922180938 70 301 3.0 15.0 0.00 0.54 0.44 72 1015.8
20210922180038 70 295 3.0 9.0 0.00 0.54 0.44 72 1015.7
20210922180010 70 24 4.0 8.0 0.00 0.54 0.44 73 1014.9
20210922175138 70 258 2.0 8.0 0.00 0.54 0.44 74 1015.7
20210922174535 70 236 1.0 8.0 0.00 0.54 0.44 75 1015.1
20210922174238 70 263 3.0 7.0 0.00 0.54 0.44 75 1015.9
20210922173338 71 324 2.0 8.0 0.00 0.54 0.44 74 1016.0
20210922173033 70 15 2.0 4.0 0.00 0.54 0.44 76 1015.3
20210922172438 70 24 1.0 5.0 0.00 0.54 0.44 77 1016.0
20210922171538 69 10 2.0 5.0 0.00 0.54 0.44 77 1016.3
20210922171536 69 41 1.0 5.0 0.00 0.54 0.44 77 1015.5
20210922170638 69 72 2.0 6.0 0.00 0.54 0.44 81 1016.1
20210922170009 68 185 1.0 6.0 0.00 0.54 0.44 79 1015.3
20210922165738 68 4 3.0 7.0 0.00 0.54 0.44 79 1016.2
20210922164838 68 5 3.0 10.0 0.00 0.54 0.44 83 1016.4
20210922164551 67 319 3.0 8.0 0.00 0.54 0.44 81 1015.7
20210922163938 67 61 3.0 7.0 0.00 0.54 0.44 82 1016.5
20210922163038 67 359 2.0 6.0 0.00 0.54 0.44 85 1016.6
20210922163030 66 65 2.0 6.0 0.00 0.54 0.44 85 1015.8
20210922162138 66 53 1.0 2.0 0.00 0.54 0.44 86 1016.6
20210922161504 65 65 1.0 3.0 0.01 0.54 0.44 87 1015.7
20210922161238 66 50 1.0 3.0 0.01 0.54 0.44 87 1016.5
20210922160338 65 51 1.0 4.0 0.01 0.54 0.44 88 1016.5
20210922160028 65 46 1.0 5.0 0.01 0.54 0.44 89 1015.6
20210922155438 65 82 1.0 6.0 0.01 0.54 0.44 89 1016.6
20210922154538 65 46 1.0 6.0 0.01 0.54 0.44 91 1016.6
20210922154530 65 85 0.0 6.0 0.01 0.54 0.44 91 1015.8
20210922153638 65 58 1.0 5.0 0.02 0.54 0.44 91 1016.5
20210922153021 64 51 1.0 3.0 0.02 0.54 0.44 91 1015.7
20210922152738 65 34 1.0 3.0 0.02 0.54 0.44 91 1016.6
20210922151838 65 35 1.0 2.0 0.02 0.54 0.44 91 1016.7
20210922151509 64 35 0.0 2.0 0.01 0.53 0.43 90 1016.1
20210922150938 65 33 1.0 4.0 0.01 0.53 0.43 89 1016.6
20210922150038 65 67 2.0 7.0 0.01 0.53 0.43 89 1016.7
20210922150036 64 32 1.0 6.0 0.01 0.53 0.43 89 1015.9
20210922145138 65 78 4.0 10.0 0.01 0.53 0.43 88 1016.5
20210922144520 65 119 5.0 10.0 0.01 0.53 0.43 88 1015.6
20210922144238 66 19 3.0 11.0 0.01 0.52 0.42 88 1016.5
20210922143338 66 5 4.0 10.0 0.01 0.52 0.42 88 1016.5
20210922143031 66 13 4.0 10.0 0.01 0.52 0.42 89 1015.6
20210922142438 67 6 4.0 10.0 0.03 0.52 0.42 90 1016.3
20210922141538 67 356 4.0 9.0 0.10 0.52 0.42 90 1016.1
20210922141505 67 313 4.0 9.0 0.10 0.52 0.42 90 1015.2
20210922140638 67 8 4.0 8.0 0.15 0.52 0.42 91 1015.9
20210922140025 67 150 3.0 11.0 0.17 0.52 0.42 91 1015.0
20210922135738 68 357 4.0 11.0 0.17 0.52 0.42 92 1015.6
20210922134838 68 339 3.0 12.0 0.17 0.52 0.42 93 1015.5
20210922134536 67 321 4.0 9.0 0.17 0.52 0.42 93 1014.5
20210922133938 68 357 3.0 7.0 0.16 0.51 0.41 94 1015.4
20210922133038 68 305 2.0 7.0 0.16 0.51 0.41 94 1015.1
20210922133029 68 21 2.0 7.0 0.16 0.51 0.41 94 1014.3
20210922132138 69 311 3.0 9.0 0.12 0.47 0.37 94 1015.0
20210922131527 69 325 2.0 11.0 0.07 0.42 0.32 93 1014.0
20210922131238 71 312 3.0 11.0 0.04 0.39 0.30 93 1014.8
20210922130338 72 294 1.0 3.0 0.00 0.35 0.25 95 1014.1
20210922130010 71 299 0.0 2.0 0.00 0.35 0.25 95 1013.3
20210922125438 72 299 0.0 1.0 0.00 0.35 0.25 95 1014.1
20210922124538 72 299 0.0 1.0 0.00 0.35 0.25 95 1014.1
20210922124512 71 299 0.0 1.0 0.00 0.35 0.25 95 1013.3
20210922123638 71 299 0.0 1.0 0.00 0.35 0.25 95 1014.0
20210922123018 71 299 0.0 1.0 0.01 0.35 0.25 95 1013.2
20210922122738 71 299 0.0 1.0 0.01 0.35 0.25 95 1014.0
20210922121838 71 0 0.0 1.0 0.01 0.35 0.25 95 1014.1
20210922121503 71 299 0.0 1.0 0.01 0.35 0.25 95 1013.2
20210922120938 71 299 0.0 2.0 0.01 0.35 0.25 95 1014.1
20210922120038 71 299 0.0 2.0 0.01 0.35 0.25 94 1014.2
20210922120010 70 299 0.0 2.0 0.01 0.35 0.25 95 1013.3
20210922115138 71 303 1.0 3.0 0.01 0.35 0.25 94 1014.2
20210922114524 70 299 1.0 3.0 0.01 0.35 0.25 95 1013.3
20210922114238 71 323 1.0 3.0 0.01 0.35 0.25 95 1014.1
20210922113338 71 339 1.0 3.0 0.00 0.34 0.24 94 1014.0
20210922113011 70 355 1.0 2.0 0.00 0.34 0.24 94 1013.1
20210922112439 71 359 0.0 2.0 0.00 0.34 0.24 94 1013.9
20210922111539 71 355 0.0 1.0 0.00 0.34 0.24 94 1013.9
20210922111525 70 355 0.0 1.0 0.00 0.34 0.24 94 1013.0
20210922110638 71 355 0.0 1.0 0.00 0.34 0.24 94 1014.0
20210922110019 70 355 0.0 0.0 0.00 0.34 0.24 94 1013.1
20210922105739 70 355 0.0 1.0 0.00 0.34 0.24 94 1013.9
20210922104839 70 352 1.0 2.0 0.00 0.34 0.24 94 1013.8
20210922104509 70 355 1.0 2.0 0.00 0.34 0.24 94 1013.1
20210922103938 70 0 0.0 1.0 0.00 0.34 0.24 94 1013.9
20210922103039 70 0 0.0 0.0 0.00 0.34 0.24 94 1013.8
20210922103015 70 317 0.0 0.0 0.00 0.34 0.24 94 1013.0
20210922102138 70 0 0.0 0.0 0.00 0.34 0.24 94 1013.9
20210922101518 70 317 0.0 2.0 0.00 0.34 0.24 94 1013.1
20210922101238 70 317 0.0 2.0 0.00 0.34 0.24 94 1014.0
20210922100338 70 317 0.0 2.0 0.02 0.34 0.24 94 1014.1
20210922100015 70 317 0.0 2.0 0.04 0.34 0.24 94 1013.2
20210922095439 70 317 0.0 1.0 0.14 0.34 0.24 94 1014.1
20210922094539 70 317 0.0 1.0 0.21 0.34 0.24 94 1014.1
20210922094524 70 317 0.0 1.0 0.21 0.34 0.24 94 1013.2
20210922093639 70 347 1.0 2.0 0.21 0.34 0.24 94 1014.3
20210922093046 70 34 0.0 2.0 0.21 0.34 0.24 94 1013.4
20210922092739 70 346 1.0 2.0 0.21 0.34 0.24 94 1014.3
20210922091839 70 354 2.0 4.0 0.21 0.34 0.24 94 1014.3
20210922091515 70 342 2.0 4.0 0.21 0.34 0.24 94 1013.5
20210922090939 70 28 1.0 3.0 0.20 0.33 0.23 94 1014.5
20210922090039 70 39 1.0 3.0 0.18 0.29 0.20 94 1014.6
20210922090013 70 67 0.0 3.0 0.19 0.30 0.20 94 1013.7
20210922085139 70 12 0.0 2.0 0.05 0.15 0.05 94 1014.8
20210922084522 70 12 0.0 1.0 0.03 0.13 0.03 94 1013.9
20210922084239 70 12 0.0 1.0 0.03 0.13 0.03 94 1014.8
20210922083339 70 12 0.0 1.0 0.03 0.13 0.03 94 1015.0
20210922083109 69 12 0.0 1.0 0.03 0.13 0.03 94 1014.2
20210922082439 70 12 0.0 1.0 0.03 0.13 0.03 94 1015.0
20210922081539 70 12 0.0 2.0 0.03 0.13 0.03 93 1015.0
20210922081507 69 12 0.0 2.0 0.03 0.13 0.03 93 1014.2
20210922080639 70 12 0.0 2.0 0.02 0.12 0.03 93 1015.1
20210922080023 70 12 0.0 1.0 0.01 0.11 0.01 94 1014.4
20210922075739 70 12 0.0 1.0 0.00 0.10 0.00 93 1015.2
20210922074839 70 12 0.0 1.0 0.00 0.10 0.00 93 1015.5
20210922074541 70 12 0.0 1.0 0.00 0.10 0.00 93 1014.8
20210922073939 70 12 0.0 1.0 0.00 0.10 0.00 94 1015.6
20210922073039 70 12 0.0 2.0 0.00 0.10 0.00 94 1015.7
20210922073023 70 12 0.0 1.0 0.00 0.10 0.00 94 1014.8
20210922072139 70 12 0.0 2.0 0.00 0.10 0.00 94 1015.7
20210922071512 69 12 0.0 0.0 0.00 0.10 0.00 93 1015.0
20210922071239 70 12 0.0 1.0 0.00 0.10 0.00 93 1015.8
20210922070339 70 7 1.0 2.0 0.00 0.10 0.00 94 1015.9
20210922070023 69 12 0.0 2.0 0.00 0.10 0.00 94 1015.1
20210922065439 70 344 0.0 2.0 0.00 0.10 0.00 94 1016.1
20210922064550 69 344 0.0 2.0 0.00 0.10 0.00 94 1015.2
20210922064539 70 344 0.0 2.0 0.00 0.10 0.00 94 1016.1
20210922063639 70 344 0.0 2.0 0.00 0.10 0.00 94 1016.2
20210922063014 69 344 0.0 1.0 0.00 0.10 0.00 94 1015.3
20210922062739 70 344 0.0 2.0 0.00 0.10 0.00 94 1016.3
20210922061839 70 344 0.0 2.0 0.00 0.10 0.00 94 1016.3
20210922061510 69 344 0.0 1.0 0.00 0.10 0.00 94 1015.5
20210922060939 70 344 0.0 1.0 0.00 0.10 0.00 93 1016.2
20210922060040 69 344 0.0 1.0 0.00 0.10 0.00 93 1015.6
20210922055139 70 344 0.0 1.0 0.00 0.10 0.00 93 1016.5
20210922054533 69 344 0.0 0.0 0.00 0.10 0.00 93 1015.9
20210922054239 70 344 0.0 1.0 0.00 0.10 0.00 93 1016.8
20210922053339 70 344 0.0 1.0 0.00 0.10 0.00 93 1016.8
20210922053008 70 344 0.0 1.0 0.00 0.10 0.00 93 1016.0
20210922052439 70 344 0.0 1.0 0.00 0.10 0.00 93 1016.9
20210922051539 70 344 0.0 1.0 0.00 0.10 0.00 93 1017.0
20210922051519 70 344 0.0 1.0 0.00 0.10 0.00 93 1016.1
20210922050639 70 344 0.0 1.0 0.00 0.10 0.00 93 1017.0
20210922050016 70 344 0.0 0.0 0.00 0.10 0.00 93 1016.4
20210922045739 70 344 0.0 1.0 0.00 0.10 0.00 93 1017.2
20210922044839 70 344 0.0 1.0 0.00 0.10 0.00 93 1017.5
20210922044531 70 344 0.0 1.0 0.00 0.10 0.00 93 1016.6
20210922043939 71 344 0.0 2.0 0.00 0.10 0.00 93 1017.6
20210922043039 71 344 0.0 2.0 0.00 0.10 0.00 93 1017.6
20210922043005 70 344 0.0 2.0 0.00 0.10 0.00 93 1016.7
20210922042139 71 336 0.0 2.0 0.00 0.10 0.00 93 1017.6
20210922041513 70 344 0.0 2.0 0.00 0.10 0.00 93 1016.7
20210922041239 71 309 0.0 1.0 0.00 0.10 0.00 93 1017.5
20210922040339 71 309 0.0 2.0 0.00 0.10 0.00 92 1017.4
20210922040023 71 309 0.0 2.0 0.00 0.10 0.00 92 1016.6
20210922035439 71 309 0.0 2.0 0.00 0.10 0.10 92 1017.5
20210922034539 72 354 1.0 3.0 0.00 0.10 0.10 92 1017.9
20210922034518 71 309 0.0 2.0 0.00 0.11 0.10 92 1017.0
20210922033639 72 63 1.0 3.0 0.05 0.10 0.10 92 1017.7
20210922033005 71 62 0.0 2.0 0.10 0.11 0.10 92 1016.8
20210922032739 72 66 0.0 2.0 0.10 0.10 0.10 92 1017.5
20210922031839 72 67 1.0 2.0 0.10 0.10 0.10 92 1017.7
20210922031549 71 67 0.0 2.0 0.10 0.11 0.10 92 1016.8
20210922030939 72 67 1.0 2.0 0.10 0.10 0.10 92 1017.7
20210922030039 72 83 1.0 3.0 0.10 0.11 0.10 92 1017.6
20210922030036 72 67 0.0 3.0 0.10 0.11 0.10 92 1016.7
20210922025139 72 40 0.0 3.0 0.10 0.11 0.10 91 1017.8
20210922024502 73 25 0.0 3.0 0.10 0.11 0.10 91 1017.0
20210922024239 73 4 1.0 3.0 0.09 0.10 0.09 90 1017.8
20210922023339 74 292 2.0 4.0 0.01 0.02 0.01 88 1017.9
20210922023019 74 292 2.0 4.0 0.00 0.01 0.00 88 1017.2
20210922022439 74 279 2.0 4.0 0.00 0.01 0.00 88 1017.9
20210922021539 74 160 1.0 3.0 0.00 0.01 0.00 90 1017.8
20210922021525 73 205 0.0 3.0 0.00 0.01 0.00 90 1016.9
20210922020639 74 123 0.0 2.0 0.00 0.01 0.00 91 1017.7
20210922020037 73 101 0.0 1.0 0.00 0.01 0.00 92 1016.9
20210922015739 73 101 0.0 1.0 0.00 0.01 0.00 93 1017.7
20210922014839 74 101 0.0 2.0 0.00 0.01 0.00 93 1017.7
20210922014508 73 101 0.0 3.0 0.00 0.02 0.00 94 1016.9
20210922013939 74 101 0.0 3.0 0.00 0.01 0.00 94 1017.8
20210922013039 74 101 0.0 2.0 0.00 0.01 0.00 94 1017.8
20210922013014 73 102 0.0 2.0 0.00 0.02 0.00 94 1016.9
20210922012139 74 99 0.0 1.0 0.00 0.01 0.00 94 1017.6
20210922011239 74 0 0.0 0.0 0.00 0.01 0.00 94 1017.3
20210922010339 74 0 0.0 0.0 0.00 0.02 0.00 93 1017.1
20210922010033 74 99 0.0 0.0 0.00 0.02 0.00 94 1016.2
20210922005439 74 99 0.0 1.0 0.00 0.02 0.00 93 1017.0
20210922004540 74 99 0.0 1.0 0.00 0.03 0.00 93 1017.1
20210922004515 74 99 0.0 1.0 0.00 0.28 0.00 93 1016.3
20210922003639 75 99 0.0 1.0 0.00 0.05 0.00 93 1016.8
20210922003101 74 99 0.0 2.0 0.00 0.28 0.00 93 1015.8
20210922002739 75 99 0.0 2.0 0.00 0.09 0.00 93 1016.7
20210922001839 75 99 0.0 1.0 0.00 0.17 0.00 93 1016.7
20210922001531 75 99 0.0 2.0 0.00 0.28 0.00 93 1015.8
20210922000939 75 99 0.0 2.0 0.00 0.23 0.00 92 1016.7
20210922000039 76 99 0.0 1.0 0.00 0.28 0.00 92 1016.8
20210922000013 75 99 0.0 1.0 0.00 0.28 0.00 92 1016.0
20210921235139 76 99 0.0 1.0 0.00 0.36 0.00 91 1016.7
20210921234520 76 99 0.0 1.0 0.00 0.40 0.00 91 1015.8
20210921234239 76 99 0.0 1.0 0.00 0.40 0.00 91 1016.6
20210921233339 76 101 0.0 1.0 0.00 0.40 0.00 91 1016.6
20210921233009 76 101 0.0 1.0 0.00 0.40 0.00 90 1015.6
20210921232439 77 0 0.0 0.0 0.00 0.40 0.00 90 1016.5
20210921231539 77 0 0.0 0.0 0.00 0.40 0.00 89 1016.2
20210921231512 77 99 0.0 0.0 0.00 0.40 0.00 89 1015.4
20210921230640 78 0 0.0 0.0 0.00 0.40 0.00 87 1016.2
20210921230046 78 99 0.0 0.0 0.00 0.40 0.00 87 1015.4
20210921225740 78 99 0.0 1.0 0.00 0.40 0.00 87 1016.4
20210921224839 78 99 0.0 2.0 0.00 0.40 0.00 85 1016.2
20210921224507 78 99 1.0 2.0 0.00 0.40 0.00 84 1015.5
20210921223940 79 0 0.0 0.0 0.00 0.40 0.00 83 1016.2
20210921223039 80 99 0.0 2.0 0.00 0.40 0.00 82 1016.2
20210921223017 79 99 0.0 2.0 0.00 0.40 0.00 82 1015.3
20210921222139 80 99 0.0 1.0 0.00 0.40 0.00 82 1016.2
20210921221537 80 99 0.0 2.0 0.00 0.40 0.00 82 1015.3
20210921221239 80 99 1.0 2.0 0.00 0.40 0.00 81 1016.2
20210921220340 81 99 0.0 2.0 0.00 0.40 0.00 78 1016.2
20210921220019 80 99 0.0 2.0 0.00 0.40 0.00 82 1015.3
20210921215440 80 99 0.0 2.0 0.00 0.40 0.00 82 1016.2
20210921214540 80 99 0.0 1.0 0.00 0.40 0.00 84 1016.5
20210921214517 79 99 0.0 1.0 0.00 0.40 0.00 83 1015.6
20210921213640 79 99 0.0 1.0 0.00 0.40 0.00 83 1016.2
20210921213033 78 99 0.0 1.0 0.00 0.40 0.00 83 1015.4
20210921212740 79 99 0.0 1.0 0.00 0.40 0.00 82 1016.2
20210921211840 80 99 1.0 3.0 0.00 0.40 0.00 79 1016.4
20210921211514 81 99 1.0 3.0 0.00 0.40 0.00 78 1015.6
20210921210940 81 99 1.0 3.0 0.00 0.40 0.00 76 1016.4
20210921210040 81 87 1.0 4.0 0.00 0.40 0.00 77 1016.5
20210921210015 81 99 0.0 4.0 0.00 0.40 0.00 77 1015.7
20210921205140 83 334 1.0 3.0 0.00 0.40 0.00 72 1016.6
20210921204538 82 337 1.0 3.0 0.00 0.40 0.00 74 1015.9
20210921204240 82 76 1.0 3.0 0.00 0.40 0.00 73 1016.8
20210921203340 82 112 1.0 4.0 0.00 0.40 0.00 74 1016.8
20210921203021 81 96 0.0 4.0 0.00 0.40 0.00 75 1016.0
20210921202440 82 77 1.0 5.0 0.00 0.40 0.00 74 1016.8
20210921201540 81 84 2.0 4.0 0.00 0.40 0.00 76 1016.8
20210921201506 81 103 2.0 4.0 0.00 0.40 0.00 76 1016.0
20210921200640 81 58 1.0 4.0 0.00 0.40 0.00 77 1016.9
20210921200015 81 44 2.0 4.0 0.00 0.40 0.00 76 1016.1
20210921195740 81 85 1.0 3.0 0.00 0.40 0.00 77 1017.0
20210921194840 80 30 1.0 3.0 0.00 0.40 0.00 78 1017.1
20210921194535 79 22 1.0 2.0 0.00 0.40 0.00 80 1016.4
20210921192140 80 26 1.0 4.0 0.00 0.40 0.00 80 1017.7
20210921191509 79 16 1.0 5.0 0.00 0.40 0.00 80 1016.9
20210921191240 80 67 2.0 5.0 0.00 0.40 0.00 79 1017.7
20210921190340 80 106 0.0 4.0 0.00 0.40 0.00 79 1017.8
20210921190012 79 221 0.0 2.0 0.00 0.40 0.00 79 1017.0
20210921185440 79 202 1.0 3.0 0.00 0.40 0.00 82 1018.0
20210921184540 79 225 1.0 3.0 0.00 0.40 0.00 80 1018.2
20210921184529 79 200 0.0 3.0 0.00 0.44 0.00 80 1017.4
20210921183640 79 264 1.0 3.0 0.00 0.41 0.00 80 1018.4
20210921183006 79 303 1.0 4.0 0.00 0.44 0.00 81 1017.9
20210921182740 79 287 1.0 4.0 0.00 0.41 0.00 81 1018.8
20210921181840 78 337 1.0 3.0 0.00 0.41 0.00 82 1018.9
20210921181510 78 347 0.0 2.0 0.00 0.44 0.00 82 1018.3